Time;durP1;ratioP1;P1;durP2;ratioP2;P2;SDS_P1;SDS_P2;PMS_P1;PMS_P2;Temp;Humidity;BMP_temperature;BMP_pressure;BME280_temperature;BME280_humidity;BME280_pressure;Samples;Min_cycle;Max_cycle;Signal;HPM_P1;HPM_P2
2023/01/08 00:01:41;;;;;;;1.60;0.85;;;9.50;99.90;;;;;;5043418;28;20694;-78
2023/01/08 00:04:07;;;;;;;0.47;0.47;;;9.50;99.90;;;;;;5043925;28;20040;-77
2023/01/08 00:06:33;;;;;;;0.73;0.50;;;9.50;99.90;;;;;;5041207;28;20039;-77
2023/01/08 00:08:59;;;;;;;11.50;2.95;;;9.50;99.90;;;;;;5049306;28;20053;-76
2023/01/08 00:11:24;;;;;;;2.10;1.10;;;9.50;99.90;;;;;;5042697;28;20037;-79
2023/01/08 00:13:50;;;;;;;0.93;0.93;;;9.50;99.90;;;;;;5042671;28;20055;-79
2023/01/08 00:16:18;;;;;;;0.77;0.77;;;9.60;99.90;;;;;;5042980;28;20029;-76
2023/01/08 00:18:45;;;;;;;1.45;0.60;;;9.60;99.90;;;;;;5043554;28;20025;-78
2023/01/08 00:21:11;;;;;;;2.35;1.27;;;9.60;99.90;;;;;;5043164;28;20029;-78
2023/01/08 00:23:37;;;;;;;0.30;0.30;;;9.60;99.90;;;;;;5042506;28;20708;-78
2023/01/08 00:26:08;;;;;;;1.00;0.93;;;9.60;99.90;;;;;;5041382;28;20052;-79
2023/01/08 00:28:34;;;;;;;0.65;0.63;;;9.60;99.90;;;;;;5042467;28;20039;-79
2023/01/08 00:31:03;;;;;;;0.50;0.50;;;9.60;99.90;;;;;;5042124;28;20108;-81
2023/01/08 00:33:28;;;;;;;0.70;0.70;;;9.60;99.90;;;;;;5043304;28;20044;-78
2023/01/08 00:35:54;;;;;;;2.00;0.50;;;9.60;99.90;;;;;;5042636;28;20107;-79
2023/01/08 00:38:25;;;;;;;2.95;1.73;;;9.60;99.90;;;;;;5043080;28;20095;-81
2023/01/08 00:40:51;;;;;;;0.75;0.75;;;9.60;99.90;;;;;;5050308;28;20029;-79
2023/01/08 00:43:16;;;;;;;0.68;0.68;;;9.60;99.90;;;;;;5049479;28;20041;-78
2023/01/08 00:45:42;;;;;;;1.13;1.10;;;9.60;99.90;;;;;;5044038;28;20036;-78
2023/01/08 00:48:09;;;;;;;1.42;0.77;;;9.50;99.90;;;;;;5046183;28;20056;-80
2023/01/08 00:50:35;;;;;;;0.40;0.40;;;9.60;99.90;;;;;;5047375;28;20113;-78
2023/01/08 00:53:02;;;;;;;0.77;0.77;;;9.50;99.90;;;;;;5041777;28;20041;-79
2023/01/08 00:55:28;;;;;;;0.55;0.55;;;9.40;99.90;;;;;;5041488;28;20040;-79
2023/01/08 00:57:54;;;;;;;0.50;0.50;;;9.30;99.90;;;;;;5042331;28;20609;-78
2023/01/08 01:00:20;;;;;;;0.25;0.25;;;9.30;99.90;;;;;;5041961;28;20076;-80
2023/01/08 01:02:46;;;;;;;0.95;0.70;;;9.20;99.90;;;;;;5041328;28;20044;-80
2023/01/08 01:05:16;;;;;;;0.10;0.10;;;9.30;99.90;;;;;;5043411;28;20029;-79
2023/01/08 01:07:43;;;;;;;2.17;0.88;;;9.30;99.90;;;;;;5040197;28;20045;-80
2023/01/08 01:10:10;;;;;;;1.27;0.40;;;9.20;99.90;;;;;;5040853;28;20035;-79
2023/01/08 01:12:37;;;;;;;0.20;0.20;;;9.10;99.90;;;;;;5046904;28;20044;-79
2023/01/08 01:15:05;;;;;;;0.47;0.47;;;9.10;99.90;;;;;;5039707;28;20033;-80
2023/01/08 01:17:31;;;;;;;0.10;0.10;;;9.00;99.90;;;;;;5043199;28;20116;-80
2023/01/08 01:19:57;;;;;;;1.15;0.75;;;9.00;99.90;;;;;;5045464;28;20614;-80
2023/01/08 01:22:22;;;;;;;0.10;0.10;;;9.00;99.90;;;;;;5041178;28;20029;-80
2023/01/08 01:24:48;;;;;;;0.73;0.73;;;9.00;99.90;;;;;;5042204;28;20029;-81
2023/01/08 01:27:14;;;;;;;0.43;0.43;;;8.80;99.90;;;;;;5042898;28;20032;-79
2023/01/08 01:29:39;;;;;;;0.00;0.00;;;8.80;99.90;;;;;;5042135;28;20248;-81
2023/01/08 01:32:05;;;;;;;1.00;1.00;;;8.80;99.90;;;;;;5042476;28;20043;-80
2023/01/08 01:34:31;;;;;;;0.60;0.55;;;8.80;99.90;;;;;;5041826;28;20068;-80
2023/01/08 01:36:57;;;;;;;0.15;0.15;;;8.60;99.90;;;;;;5042194;28;20029;-80
2023/01/08 01:39:22;;;;;;;1.00;0.35;;;8.70;99.90;;;;;;5042570;28;20075;-80
2023/01/08 01:41:48;;;;;;;0.40;0.38;;;8.70;99.90;;;;;;5041310;28;20048;-80
2023/01/08 01:44:33;;;;;;;0.75;0.68;;;8.70;99.90;;;;;;5049434;28;20029;-79
2023/01/08 01:47:00;;;;;;;0.20;0.20;;;8.70;99.90;;;;;;5039730;28;20029;-81
2023/01/08 01:49:26;;;;;;;1.15;1.10;;;8.70;99.90;;;;;;5041596;28;20040;-79
2023/01/08 01:52:01;;;;;;;0.30;0.30;;;8.70;99.90;;;;;;5034244;28;20025;-79
2023/01/08 01:54:28;;;;;;;0.20;0.20;;;8.70;99.90;;;;;;5039789;28;20094;-80
2023/01/08 01:56:55;;;;;;;1.88;0.73;;;8.80;99.90;;;;;;5041784;28;20484;-79
2023/01/08 01:59:21;;;;;;;0.43;0.43;;;8.80;99.90;;;;;;5041692;28;20067;-81
2023/01/08 02:01:47;;;;;;;1.50;1.25;;;8.80;99.90;;;;;;5041646;28;20813;-80
2023/01/08 02:04:13;;;;;;;0.55;0.55;;;8.80;99.90;;;;;;5040343;28;20036;-79
2023/01/08 02:06:42;;;;;;;0.30;0.30;;;8.80;99.90;;;;;;5041354;28;20610;-80
2023/01/08 02:09:22;;;;;;;0.43;0.43;;;8.80;99.90;;;;;;5042132;28;20136;-82
2023/01/08 02:12:18;;;;;;;0.28;0.28;;;8.80;99.90;;;;;;5041142;28;20078;-80
2023/01/08 02:15:05;;;;;;;0.65;0.50;;;8.90;99.90;;;;;;5040842;28;20057;-79
2023/01/08 02:17:44;;;;;;;0.20;0.20;;;8.80;99.90;;;;;;5042063;28;20025;-80
2023/01/08 02:20:16;;;;;;;1.20;0.63;;;8.90;99.90;;;;;;5041992;28;20554;-81
2023/01/08 02:22:50;;;;;;;0.20;0.20;;;8.90;99.90;;;;;;5041709;28;20079;-81
2023/01/08 02:25:46;;;;;;;0.10;0.10;;;8.90;99.90;;;;;;5041280;28;20025;-79
2023/01/08 02:28:14;;;;;;;0.17;0.17;;;8.80;99.90;;;;;;5038269;28;20121;-78
2023/01/08 02:30:40;;;;;;;0.10;0.10;;;8.80;99.90;;;;;;5041417;28;20052;-80
2023/01/08 02:33:06;;;;;;;0.20;0.20;;;8.80;99.90;;;;;;5036289;28;20226;-79
2023/01/08 02:35:43;;;;;;;0.10;0.10;;;8.70;99.90;;;;;;5043630;28;20062;-78
2023/01/08 02:38:14;;;;;;;0.10;0.10;;;8.70;99.90;;;;;;5042322;28;20059;-79
2023/01/08 02:41:04;;;;;;;0.20;0.20;;;8.70;99.90;;;;;;5043824;28;20068;-82
2023/01/08 02:43:43;;;;;;;0.20;0.20;;;8.80;99.90;;;;;;5048066;28;20029;-82
2023/01/08 02:46:17;;;;;;;0.10;0.10;;;8.60;99.90;;;;;;5040948;28;20108;-79
2023/01/08 02:48:54;;;;;;;0.22;0.22;;;8.70;99.90;;;;;;5040452;28;20756;-80
2023/01/08 02:51:59;;;;;;;0.20;0.20;;;8.60;99.90;;;;;;5041465;28;20021;-82
2023/01/08 02:54:29;;;;;;;0.10;0.10;;;8.60;99.90;;;;;;5029152;28;20080;-81
2023/01/08 02:57:00;;;;;;;0.22;0.22;;;8.60;99.90;;;;;;5040614;28;20080;-80
2023/01/08 02:59:28;;;;;;;0.10;0.10;;;8.50;99.90;;;;;;5041057;28;20108;-82
2023/01/08 03:01:54;;;;;;;2.63;1.50;;;8.50;99.90;;;;;;5039129;28;20033;-81
2023/01/08 03:04:22;;;;;;;0.10;0.10;;;8.50;99.90;;;;;;5041150;28;20025;-82
2023/01/08 03:06:49;;;;;;;0.10;0.10;;;8.50;99.90;;;;;;5039488;28;20056;-80
2023/01/08 03:09:16;;;;;;;0.30;0.30;;;8.50;99.90;;;;;;5041494;28;20056;-83
2023/01/08 03:11:57;;;;;;;0.17;0.17;;;8.60;99.90;;;;;;5042913;28;20037;-80
2023/01/08 03:14:29;;;;;;;0.68;0.68;;;8.70;99.90;;;;;;5044280;28;20181;-79
2023/01/08 03:17:02;;;;;;;0.10;0.10;;;8.60;99.90;;;;;;5044697;28;20029;-79
2023/01/08 03:19:35;;;;;;;0.20;0.20;;;8.60;99.90;;;;;;5044839;28;20056;-79
2023/01/08 03:22:02;;;;;;;0.77;0.40;;;8.70;99.90;;;;;;5038097;28;20033;-80
2023/01/08 03:24:33;;;;;;;0.20;0.20;;;8.70;99.90;;;;;;5048950;28;20065;-80
2023/01/08 03:27:02;;;;;;;0.28;0.28;;;8.60;99.90;;;;;;5044804;28;20067;-79
2023/01/08 03:29:29;;;;;;;0.10;0.10;;;8.70;99.90;;;;;;5044850;28;20021;-79
2023/01/08 03:32:00;;;;;;;0.30;0.30;;;8.60;99.90;;;;;;5047454;28;20025;-79
2023/01/08 03:34:28;;;;;;;0.10;0.10;;;8.60;99.90;;;;;;5046161;28;20051;-79
2023/01/08 03:36:57;;;;;;;0.10;0.10;;;8.60;99.90;;;;;;5043918;28;20025;-78
2023/01/08 03:39:31;;;;;;;1.88;0.40;;;8.60;99.90;;;;;;5038817;28;20492;-79
2023/01/08 03:42:01;;;;;;;0.20;0.20;;;8.70;99.90;;;;;;5043013;28;20030;-82
2023/01/08 03:44:27;;;;;;;0.30;0.30;;;8.80;99.90;;;;;;5043518;28;20040;-80
2023/01/08 03:46:54;;;;;;;0.10;0.10;;;8.80;99.90;;;;;;5041889;28;20029;-80
2023/01/08 03:49:23;;;;;;;0.10;0.10;;;8.80;99.90;;;;;;5042466;28;20032;-81
2023/01/08 03:51:49;;;;;;;0.30;0.30;;;8.80;99.90;;;;;;5044067;28;20024;-79
2023/01/08 03:54:22;;;;;;;0.38;0.38;;;8.90;99.90;;;;;;5048851;28;20115;-83
2023/01/08 03:56:48;;;;;;;0.10;0.10;;;8.90;99.90;;;;;;5049622;28;20029;-82
2023/01/08 03:59:15;;;;;;;0.10;0.10;;;8.90;99.90;;;;;;5047073;28;20043;-81
2023/01/08 04:01:41;;;;;;;0.00;0.00;;;8.90;99.90;;;;;;5044507;28;20693;-83
2023/01/08 04:04:07;;;;;;;0.10;0.10;;;8.90;99.90;;;;;;5047281;28;20460;-83
2023/01/08 04:06:33;;;;;;;0.10;0.10;;;8.90;99.90;;;;;;5041628;28;20282;-81
2023/01/08 04:08:59;;;;;;;0.15;0.15;;;8.80;99.90;;;;;;5050818;28;21159;-80
2023/01/08 04:11:24;;;;;;;0.10;0.10;;;8.80;99.90;;;;;;5042202;28;20032;-80
2023/01/08 04:13:50;;;;;;;0.10;0.10;;;8.80;99.90;;;;;;5043701;28;20144;-82
2023/01/08 04:16:16;;;;;;;0.10;0.10;;;8.80;99.90;;;;;;5042968;28;20031;-79
2023/01/08 04:18:41;;;;;;;0.10;0.10;;;8.80;99.90;;;;;;5043769;28;20033;-81
2023/01/08 04:21:07;;;;;;;0.20;0.20;;;8.80;99.90;;;;;;5042876;28;20580;-80
2023/01/08 04:23:33;;;;;;;0.63;0.63;;;8.80;99.90;;;;;;5043219;28;20037;-80
2023/01/08 04:26:01;;;;;;;0.10;0.10;;;8.80;99.90;;;;;;5041995;28;20025;-80
2023/01/08 04:28:26;;;;;;;0.20;0.20;;;8.80;99.90;;;;;;5043644;28;20060;-81
2023/01/08 04:30:52;;;;;;;0.10;0.10;;;8.70;99.90;;;;;;5043847;28;20163;-80
2023/01/08 04:33:18;;;;;;;0.10;0.10;;;8.70;99.90;;;;;;5043868;28;20111;-80
2023/01/08 04:35:44;;;;;;;0.40;0.40;;;8.60;99.90;;;;;;5044213;28;20028;-79
2023/01/08 04:38:09;;;;;;;0.10;0.10;;;8.60;99.90;;;;;;5044009;28;20036;-80
2023/01/08 04:40:35;;;;;;;0.40;0.40;;;8.60;99.90;;;;;;5043679;28;20025;-82
2023/01/08 04:43:01;;;;;;;0.38;0.38;;;8.60;99.90;;;;;;5048569;28;20032;-80
2023/01/08 04:45:26;;;;;;;0.17;0.17;;;8.50;99.90;;;;;;5043571;28;20375;-82
2023/01/08 04:47:58;;;;;;;0.25;0.25;;;8.50;99.90;;;;;;5044628;28;20025;-79
2023/01/08 04:50:25;;;;;;;0.30;0.30;;;8.60;99.90;;;;;;5041831;28;20031;-80
2023/01/08 04:52:51;;;;;;;0.10;0.10;;;8.60;99.90;;;;;;5041740;28;20467;-80
2023/01/08 04:55:17;;;;;;;0.10;0.10;;;8.60;99.90;;;;;;5043742;28;20120;-79
2023/01/08 04:57:42;;;;;;;0.20;0.20;;;8.50;99.90;;;;;;5043451;28;20060;-81
2023/01/08 05:00:09;;;;;;;0.10;0.10;;;8.60;99.90;;;;;;5043079;28;20024;-79
2023/01/08 05:02:35;;;;;;;1.90;0.30;;;8.60;99.90;;;;;;5042909;28;20079;-81
2023/01/08 05:05:01;;;;;;;0.10;0.10;;;8.60;99.90;;;;;;5041428;28;20025;-78
2023/01/08 05:07:26;;;;;;;6.07;0.65;;;8.60;99.90;;;;;;5040372;28;20753;-79
2023/01/08 05:09:52;;;;;;;0.10;0.10;;;8.60;99.90;;;;;;5042445;28;20037;-79
2023/01/08 05:12:18;;;;;;;0.10;0.10;;;8.60;99.90;;;;;;5042869;28;20039;-80
2023/01/08 05:14:43;;;;;;;0.10;0.10;;;8.50;99.90;;;;;;5041808;28;20124;-78
2023/01/08 05:17:09;;;;;;;0.10;0.10;;;8.60;99.90;;;;;;5046072;28;20126;-78
2023/01/08 05:19:35;;;;;;;0.10;0.10;;;8.60;99.90;;;;;;5041820;28;20025;-78
2023/01/08 05:22:01;;;;;;;0.10;0.10;;;8.60;99.90;;;;;;5041284;28;20036;-78
2023/01/08 05:24:26;;;;;;;1.27;0.45;;;8.60;99.90;;;;;;5041279;28;20037;-78
2023/01/08 05:26:52;;;;;;;0.10;0.10;;;8.60;99.90;;;;;;5041619;28;20035;-77
2023/01/08 05:29:18;;;;;;;0.20;0.20;;;8.50;99.90;;;;;;5041155;28;20554;-78
2023/01/08 05:31:44;;;;;;;0.10;0.10;;;8.50;99.90;;;;;;5039869;28;20041;-78
2023/01/08 05:34:10;;;;;;;0.20;0.20;;;8.50;99.90;;;;;;5042584;28;20151;-82
2023/01/08 05:36:35;;;;;;;0.20;0.20;;;8.60;99.90;;;;;;5042603;28;20031;-80
2023/01/08 05:39:01;;;;;;;0.10;0.10;;;8.60;99.90;;;;;;5042648;28;20103;-78
2023/01/08 05:41:27;;;;;;;0.10;0.10;;;8.60;99.90;;;;;;5042006;28;20136;-78
2023/01/08 05:43:53;;;;;;;0.10;0.10;;;8.50;99.90;;;;;;5049443;28;20033;-80
2023/01/08 05:46:19;;;;;;;0.47;0.47;;;8.50;99.90;;;;;;5042061;28;20045;-79
2023/01/08 05:48:45;;;;;;;0.68;0.45;;;8.50;99.90;;;;;;5042385;28;20263;-79
2023/01/08 05:51:10;;;;;;;0.10;0.10;;;8.40;99.90;;;;;;5041355;28;20079;-80
2023/01/08 05:53:36;;;;;;;0.40;0.40;;;8.50;99.90;;;;;;5042304;28;20043;-79
2023/01/08 05:56:07;;;;;;;1.08;0.43;;;8.50;99.90;;;;;;5042456;28;20024;-80
2023/01/08 05:58:33;;;;;;;0.10;0.10;;;8.50;99.90;;;;;;5042282;28;20029;-81
2023/01/08 06:01:14;;;;;;;0.20;0.20;;;8.50;99.90;;;;;;5042766;28;20503;-81
2023/01/08 06:03:40;;;;;;;0.30;0.30;;;8.40;99.90;;;;;;5042721;28;20914;-80
2023/01/08 06:06:06;;;;;;;0.10;0.10;;;8.40;99.90;;;;;;5040362;28;20029;-79
2023/01/08 06:08:33;;;;;;;0.10;0.10;;;8.40;99.90;;;;;;5042066;28;20049;-80
2023/01/08 06:11:00;;;;;;;0.20;0.20;;;8.40;99.90;;;;;;5042217;28;20112;-81
2023/01/08 06:13:27;;;;;;;0.10;0.10;;;8.50;99.90;;;;;;5042320;28;20044;-80
2023/01/08 06:15:53;;;;;;;0.20;0.20;;;8.50;99.90;;;;;;5041940;28;20064;-81
2023/01/08 06:18:19;;;;;;;0.88;0.80;;;8.40;99.90;;;;;;5042117;28;20025;-80
2023/01/08 06:20:45;;;;;;;0.10;0.10;;;8.40;99.90;;;;;;5041664;28;20798;-79
2023/01/08 06:23:11;;;;;;;0.10;0.10;;;8.40;99.90;;;;;;5042078;28;20029;-79
2023/01/08 06:25:37;;;;;;;0.25;0.25;;;8.50;99.90;;;;;;5042359;28;20025;-81
2023/01/08 06:28:04;;;;;;;0.10;0.10;;;8.50;99.90;;;;;;5041953;28;20036;-80
2023/01/08 06:30:30;;;;;;;0.30;0.30;;;8.40;99.90;;;;;;5042693;28;20040;-82
2023/01/08 06:32:59;;;;;;;0.10;0.10;;;8.40;99.90;;;;;;5041927;28;20482;-81
2023/01/08 06:35:26;;;;;;;0.20;0.20;;;8.40;99.90;;;;;;5042231;28;20021;-79
2023/01/08 06:37:55;;;;;;;0.20;0.20;;;8.40;99.90;;;;;;5042282;28;20059;-80
2023/01/08 06:40:21;;;;;;;0.20;0.20;;;8.40;99.90;;;;;;5039032;28;20053;-82
2023/01/08 06:42:46;;;;;;;2.33;1.30;;;8.50;99.90;;;;;;5044115;28;20028;-81
2023/01/08 06:45:12;;;;;;;0.10;0.10;;;8.60;99.90;;;;;;5042870;28;21131;-80
2023/01/08 06:47:38;;;;;;;0.10;0.10;;;8.60;99.90;;;;;;5045696;28;20163;-79
2023/01/08 06:50:05;;;;;;;0.20;0.20;;;8.60;99.90;;;;;;5045170;28;20562;-80
2023/01/08 06:52:31;;;;;;;0.10;0.10;;;8.50;99.90;;;;;;5044981;28;20154;-80
2023/01/08 06:54:57;;;;;;;0.10;0.10;;;8.50;99.90;;;;;;5045101;28;20036;-83
2023/01/08 06:57:23;;;;;;;0.13;0.13;;;8.50;99.90;;;;;;5043825;28;20060;-80
2023/01/08 06:59:48;;;;;;;0.10;0.10;;;8.40;99.90;;;;;;5045070;28;20064;-81
2023/01/08 07:02:15;;;;;;;0.10;0.10;;;8.50;99.90;;;;;;5043770;28;20032;-80
2023/01/08 07:04:41;;;;;;;0.20;0.20;;;8.50;99.90;;;;;;5045907;28;20017;-81
2023/01/08 07:07:08;;;;;;;0.10;0.10;;;8.60;99.90;;;;;;5035729;28;20025;-81
2023/01/08 07:09:34;;;;;;;0.10;0.10;;;8.60;99.90;;;;;;5046370;28;21122;-81
2023/01/08 07:12:00;;;;;;;0.20;0.20;;;8.50;99.90;;;;;;5045752;28;20040;-84
2023/01/08 07:14:26;;;;;;;0.20;0.20;;;8.50;99.90;;;;;;5045335;28;20069;-82
2023/01/08 07:16:51;;;;;;;0.10;0.10;;;8.50;99.90;;;;;;5045405;28;20028;-81
2023/01/08 07:19:17;;;;;;;0.85;0.85;;;8.50;99.90;;;;;;5050173;28;20017;-81
2023/01/08 07:21:43;;;;;;;1.85;1.73;;;8.40;99.90;;;;;;5040997;28;20038;-82
2023/01/08 07:24:09;;;;;;;12.25;6.47;;;8.50;99.90;;;;;;5042840;28;20052;-83
2023/01/08 07:26:35;;;;;;;10.73;6.00;;;8.50;99.90;;;;;;5043352;28;20598;-82
2023/01/08 07:29:01;;;;;;;6.10;4.30;;;8.50;99.90;;;;;;5047053;28;20415;-83
2023/01/08 07:31:26;;;;;;;22.52;8.50;;;8.50;99.90;;;;;;5055846;28;20048;-81
2023/01/08 07:33:52;;;;;;;14.23;4.53;;;8.50;99.90;;;;;;5052281;28;20102;-82
2023/01/08 07:36:21;;;;;;;3.90;2.67;;;8.50;99.90;;;;;;5046425;28;20044;-82
2023/01/08 07:38:48;;;;;;;3.70;2.38;;;8.50;99.90;;;;;;5043870;28;20025;-82
2023/01/08 07:41:14;;;;;;;2.17;1.92;;;8.50;99.90;;;;;;5048189;28;20025;-80
2023/01/08 07:43:40;;;;;;;1.90;1.63;;;8.60;99.90;;;;;;5049504;28;20087;-82
2023/01/08 07:46:05;;;;;;;5.22;2.13;;;8.60;99.90;;;;;;5051165;28;20032;-82
2023/01/08 07:48:31;;;;;;;0.20;0.20;;;8.60;99.90;;;;;;5057814;28;20021;-82
2023/01/08 07:51:02;;;;;;;0.38;0.38;;;8.60;99.90;;;;;;5045065;28;20335;-83
2023/01/08 07:53:28;;;;;;;0.63;0.63;;;8.60;99.90;;;;;;5049344;28;20082;-82
2023/01/08 07:55:59;;;;;;;0.10;0.10;;;8.70;99.90;;;;;;5037022;28;20041;-83
2023/01/08 07:58:25;;;;;;;0.57;0.55;;;8.70;99.90;;;;;;5043282;28;20437;-82
2023/01/08 08:00:51;;;;;;;0.65;0.47;;;8.70;99.90;;;;;;5039207;28;20056;-83
2023/01/08 08:03:17;;;;;;;0.10;0.10;;;8.60;99.90;;;;;;5039865;28;20132;-82
2023/01/08 08:05:42;;;;;;;0.10;0.10;;;8.60;99.90;;;;;;5037188;28;20691;-82
2023/01/08 08:08:10;;;;;;;0.17;0.17;;;8.40;99.90;;;;;;5038965;28;20468;-82
2023/01/08 08:10:36;;;;;;;0.10;0.10;;;8.50;99.90;;;;;;5029784;28;20099;-83
2023/01/08 08:13:03;;;;;;;0.10;0.10;;;8.60;99.90;;;;;;5029268;28;20151;-82
2023/01/08 08:15:28;;;;;;;0.10;0.10;;;8.60;99.90;;;;;;5028773;28;20061;-83
2023/01/08 08:17:54;;;;;;;0.10;0.10;;;8.70;99.90;;;;;;5028937;28;20148;-84
2023/01/08 08:20:20;;;;;;;0.70;0.63;;;8.70;99.90;;;;;;5026932;28;20875;-82
2023/01/08 08:22:46;;;;;;;0.10;0.10;;;8.60;99.90;;;;;;5026731;28;20086;-83
2023/01/08 08:25:13;;;;;;;0.10;0.10;;;8.70;99.90;;;;;;5028307;28;20048;-83
2023/01/08 08:27:40;;;;;;;0.10;0.10;;;8.70;99.90;;;;;;5031882;28;20351;-81
2023/01/08 08:30:07;;;;;;;0.10;0.10;;;8.70;99.90;;;;;;5032753;28;20021;-82
2023/01/08 08:32:33;;;;;;;0.10;0.10;;;8.80;99.90;;;;;;5032060;28;20521;-83
2023/01/08 08:34:59;;;;;;;0.10;0.10;;;8.90;99.90;;;;;;5031017;28;20060;-82
2023/01/08 08:37:25;;;;;;;0.80;0.80;;;8.90;99.90;;;;;;5043909;28;20040;-82
2023/01/08 08:39:51;;;;;;;0.10;0.10;;;8.90;99.90;;;;;;5051320;28;20036;-82
2023/01/08 08:42:17;;;;;;;0.10;0.10;;;8.90;99.90;;;;;;5044490;28;20162;-82
2023/01/08 08:44:42;;;;;;;0.30;0.30;;;8.90;99.90;;;;;;5041536;28;20048;-82
2023/01/08 08:47:08;;;;;;;0.10;0.10;;;9.00;99.90;;;;;;5025418;28;20033;-82
2023/01/08 08:49:35;;;;;;;0.20;0.20;;;9.00;99.90;;;;;;5039221;28;20544;-82
2023/01/08 08:52:02;;;;;;;9.77;2.25;;;9.10;99.90;;;;;;5042712;28;20082;-84
2023/01/08 08:54:27;;;;;;;0.25;0.25;;;9.20;99.90;;;;;;5054723;28;20048;-80
2023/01/08 08:56:53;;;;;;;0.40;0.40;;;9.20;99.90;;;;;;5045253;28;20029;-81
2023/01/08 08:59:19;;;;;;;0.57;0.50;;;9.10;99.90;;;;;;5044758;28;20029;-81
2023/01/08 09:01:45;;;;;;;0.10;0.10;;;9.20;99.90;;;;;;5037824;28;20035;-81
2023/01/08 09:04:10;;;;;;;0.10;0.10;;;9.20;99.90;;;;;;5040704;28;20508;-82
2023/01/08 09:06:36;;;;;;;0.10;0.10;;;9.30;99.90;;;;;;5029882;28;20028;-83
2023/01/08 09:09:02;;;;;;;0.20;0.20;;;9.40;99.90;;;;;;5031711;28;20057;-80
2023/01/08 09:11:28;;;;;;;0.10;0.10;;;9.60;99.90;;;;;;5032968;28;20084;-80
2023/01/08 09:13:54;;;;;;;0.10;0.10;;;9.70;99.90;;;;;;5025371;28;20732;-81
2023/01/08 09:16:19;;;;;;;0.20;0.20;;;9.90;99.90;;;;;;5032123;28;20032;-80
2023/01/08 09:18:45;;;;;;;0.10;0.10;;;9.80;99.90;;;;;;5033421;28;20095;-80
2023/01/08 09:21:11;;;;;;;0.10;0.10;;;9.70;99.90;;;;;;5039613;28;20149;-81
2023/01/08 09:23:37;;;;;;;0.10;0.10;;;9.70;99.90;;;;;;5035686;28;20037;-81
2023/01/08 09:26:05;;;;;;;0.20;0.20;;;9.80;99.90;;;;;;5039001;28;20029;-81
2023/01/08 09:28:31;;;;;;;0.38;0.35;;;9.90;99.90;;;;;;5030487;28;20041;-81
2023/01/08 09:31:04;;;;;;;0.10;0.10;;;9.90;99.90;;;;;;5060111;28;20044;-82
2023/01/08 09:33:30;;;;;;;0.10;0.10;;;9.80;99.90;;;;;;5028010;28;20049;-81
2023/01/08 09:35:55;;;;;;;0.10;0.10;;;9.80;99.90;;;;;;5031220;28;20029;-81
2023/01/08 09:38:21;;;;;;;0.10;0.10;;;9.70;99.90;;;;;;5030189;28;20059;-81
2023/01/08 09:41:02;;;;;;;0.00;0.00;;;9.70;99.90;;;;;;5038020;28;20037;-79
2023/01/08 09:43:30;;;;;;;0.10;0.10;;;9.80;99.90;;;;;;5040054;28;20390;-81
2023/01/08 09:46:00;;;;;;;0.10;0.10;;;9.70;99.90;;;;;;5036314;28;20028;-81
2023/01/08 09:48:29;;;;;;;0.10;0.10;;;9.90;99.90;;;;;;5034501;28;20029;-81
2023/01/08 09:50:56;;;;;;;0.10;0.10;;;9.60;99.90;;;;;;5042077;28;20059;-80
2023/01/08 09:53:22;;;;;;;0.10;0.10;;;9.80;99.90;;;;;;5043919;28;20044;-82
2023/01/08 09:55:55;;;;;;;0.10;0.10;;;10.10;99.90;;;;;;5039238;28;20048;-80
2023/01/08 09:58:39;;;;;;;0.10;0.10;;;10.00;99.90;;;;;;5037597;28;20078;-80
2023/01/08 10:01:08;;;;;;;0.10;0.10;;;10.00;99.90;;;;;;5040821;28;20033;-81
2023/01/08 10:03:43;;;;;;;0.10;0.10;;;10.00;99.90;;;;;;5050014;28;20081;-81
2023/01/08 10:06:14;;;;;;;0.55;0.55;;;10.20;99.90;;;;;;5046825;28;20507;-80
2023/01/08 10:08:40;;;;;;;0.70;0.70;;;10.20;99.90;;;;;;5040298;28;20086;-79
2023/01/08 10:11:07;;;;;;;0.10;0.10;;;10.20;99.90;;;;;;5042609;28;20780;-80
2023/01/08 10:13:36;;;;;;;0.10;0.10;;;10.00;99.90;;;;;;5049911;28;20054;-79
2023/01/08 10:16:05;;;;;;;0.10;0.10;;;10.00;99.90;;;;;;5047865;28;20025;-81
2023/01/08 10:18:33;;;;;;;0.10;0.10;;;10.00;99.90;;;;;;5050547;28;20031;-80
2023/01/08 10:20:58;;;;;;;0.13;0.13;;;9.80;99.90;;;;;;5048485;28;20029;-80
2023/01/08 10:23:24;;;;;;;0.10;0.10;;;9.90;99.90;;;;;;5045948;28;20036;-79
2023/01/08 10:26:00;;;;;;;0.20;0.20;;;9.90;99.90;;;;;;5038745;28;20029;-81
2023/01/08 10:28:27;;;;;;;0.50;0.50;;;10.00;99.90;;;;;;5048968;28;20586;-81
2023/01/08 10:30:58;;;;;;;0.30;0.30;;;10.00;99.90;;;;;;5046075;28;20074;-80
2023/01/08 10:33:28;;;;;;;0.22;0.10;;;10.10;99.90;;;;;;5039904;28;20124;-80
2023/01/08 10:36:03;;;;;;;0.25;0.25;;;10.10;99.90;;;;;;5045130;28;20025;-81
2023/01/08 10:38:30;;;;;;;0.10;0.10;;;10.10;99.90;;;;;;5042791;28;20404;-79
2023/01/08 10:40:56;;;;;;;0.13;0.13;;;10.10;99.90;;;;;;5046130;28;20049;-79
2023/01/08 10:43:29;;;;;;;0.10;0.10;;;10.10;99.90;;;;;;5040628;28;20486;-82
2023/01/08 10:46:06;;;;;;;0.47;0.35;;;9.90;99.90;;;;;;5036407;28;21178;-81
2023/01/08 10:48:36;;;;;;;0.20;0.20;;;10.00;99.90;;;;;;5046348;28;20029;-83
2023/01/08 10:51:29;;;;;;;0.10;0.10;;;10.00;99.90;;;;;;5043304;28;20071;-80
2023/01/08 10:54:00;;;;;;;0.13;0.13;;;9.90;99.90;;;;;;5032661;28;20186;-80
2023/01/08 10:56:39;;;;;;;0.10;0.10;;;9.80;99.90;;;;;;5033377;28;20028;-82
2023/01/08 10:59:04;;;;;;;0.10;0.10;;;9.90;99.90;;;;;;5034585;28;20444;-80
2023/01/08 11:01:31;;;;;;;0.10;0.10;;;9.80;99.90;;;;;;5035580;28;20112;-78
2023/01/08 11:04:02;;;;;;;;;;;9.80;99.90;;;;;;5032175;28;20032;-79
2023/01/08 11:06:33;;;;;;;0.32;0.25;;;9.80;99.90;;;;;;5031948;28;19916;-82
2023/01/08 11:09:01;;;;;;;0.10;0.10;;;9.80;99.90;;;;;;5032743;28;20148;-81
2023/01/08 11:11:35;;;;;;;0.10;0.10;;;9.90;99.90;;;;;;5030277;28;20082;-82
2023/01/08 11:14:25;;;;;;;0.10;0.10;;;9.90;99.90;;;;;;5031256;28;20040;-81
2023/01/08 11:16:52;;;;;;;4.68;2.92;;;9.90;99.90;;;;;;5039135;28;20459;-80
2023/01/08 11:19:21;;;;;;;;;;;9.80;99.90;;;;;;5035251;28;20518;-79
2023/01/08 11:22:24;;;;;;;0.70;0.50;;;9.70;99.90;;;;;;5048061;28;19916;-81
2023/01/08 11:24:51;;;;;;;0.10;0.10;;;9.70;99.90;;;;;;5045026;28;20041;-80
2023/01/08 11:27:38;;;;;;;4.30;0.50;;;9.60;99.90;;;;;;5044320;28;20026;-81
2023/01/08 11:30:18;;;;;;;0.50;0.50;;;9.60;99.90;;;;;;5036869;28;20029;-80
2023/01/08 11:32:48;;;;;;;0.30;0.30;;;9.70;99.90;;;;;;5050642;28;20034;-81
2023/01/08 11:35:23;;;;;;;0.10;0.10;;;9.70;99.90;;;;;;5044241;28;20127;-80
2023/01/08 11:38:00;;;;;;;0.10;0.10;;;9.70;99.90;;;;;;5043724;28;20044;-81
2023/01/08 11:40:44;;;;;;;;;;;9.80;99.90;;;;;;5043035;28;20020;-81
2023/01/08 11:43:42;;;;;;;0.10;0.10;;;9.80;99.90;;;;;;5031109;28;19920;-81
2023/01/08 11:46:29;;;;;;;0.20;0.20;;;9.70;99.90;;;;;;5050286;28;20027;-81
2023/01/08 11:49:15;;;;;;;0.10;0.10;;;9.50;99.90;;;;;;5048371;28;20029;-80
2023/01/08 11:52:15;;;;;;;0.30;0.30;;;9.40;99.90;;;;;;5048914;28;20040;-80
2023/01/08 11:55:10;;;;;;;0.10;0.10;;;9.50;99.90;;;;;;5054748;28;20503;-81
2023/01/08 11:57:54;;;;;;;0.10;0.10;;;9.60;99.90;;;;;;5002247;28;20093;-81
2023/01/08 12:00:53;;;;;;;0.10;0.10;;;9.70;99.90;;;;;;5048817;28;20100;-81
2023/01/08 12:03:40;;;;;;;0.38;0.38;;;9.80;99.90;;;;;;5044877;28;20116;-79
2023/01/08 12:06:37;;;;;;;0.10;0.10;;;9.70;99.90;;;;;;5047417;28;20033;-80
2023/01/08 12:09:16;;;;;;;0.10;0.10;;;9.80;99.90;;;;;;5046775;28;20057;-80
2023/01/08 12:11:54;;;;;;;0.20;0.20;;;9.80;99.90;;;;;;5036112;28;20028;-81
2023/01/08 12:14:39;;;;;;;0.10;0.10;;;9.70;99.90;;;;;;5056311;28;20157;-78
2023/01/08 12:17:26;;;;;;;0.10;0.10;;;9.60;99.90;;;;;;5043444;28;20029;-80
2023/01/08 12:20:10;;;;;;;0.30;0.30;;;9.70;99.90;;;;;;5047946;28;20071;-79
2023/01/08 12:23:05;;;;;;;0.90;0.30;;;9.80;99.90;;;;;;5046986;28;20025;-79
2023/01/08 12:25:33;;;;;;;0.10;0.10;;;9.90;99.90;;;;;;5042358;28;20052;-81
2023/01/08 12:28:31;;;;;;;0.13;0.13;;;9.70;99.90;;;;;;5043642;28;20075;-84
2023/01/08 12:30:59;;;;;;;0.15;0.15;;;9.70;99.90;;;;;;5045458;28;20049;-82
2023/01/08 12:33:47;;;;;;;0.00;0.00;;;9.80;99.90;;;;;;5045842;28;20041;-82
2023/01/08 12:36:31;;;;;;;0.20;0.20;;;9.90;99.90;;;;;;5051657;28;20060;-80
2023/01/08 12:39:05;;;;;;;0.10;0.10;;;9.90;99.90;;;;;;5050128;28;20106;-82
2023/01/08 12:41:34;;;;;;;0.25;0.22;;;9.90;99.90;;;;;;5052373;28;20020;-82
2023/01/08 12:44:10;;;;;;;0.28;0.28;;;10.00;99.90;;;;;;5042669;28;20032;-81
2023/01/08 12:46:40;;;;;;;0.47;0.40;;;10.00;99.90;;;;;;5043106;28;20439;-81
2023/01/08 12:49:09;;;;;;;0.17;0.17;;;10.00;99.90;;;;;;5042307;28;20025;-82
2023/01/08 12:51:35;;;;;;;0.10;0.10;;;10.00;99.90;;;;;;5043923;28;20029;-84
2023/01/08 12:54:06;;;;;;;0.13;0.13;;;9.90;99.90;;;;;;5053270;28;20051;-82
2023/01/08 12:57:06;;;;;;;0.17;0.17;;;9.90;99.90;;;;;;5056903;28;20025;-83
2023/01/08 12:59:49;;;;;;;0.10;0.10;;;9.90;99.90;;;;;;5041845;28;20029;-81
2023/01/08 13:02:50;;;;;;;0.10;0.10;;;9.90;99.90;;;;;;5051879;28;20036;-81
2023/01/08 13:05:19;;;;;;;0.10;0.10;;;9.90;99.90;;;;;;5047152;28;20041;-83
2023/01/08 13:07:57;;;;;;;0.10;0.10;;;9.90;99.90;;;;;;5046738;28;20368;-82
2023/01/08 13:11:02;;;;;;;0.10;0.10;;;10.00;99.90;;;;;;5041191;28;20025;-83
2023/01/08 13:13:33;;;;;;;0.28;0.28;;;9.90;99.90;;;;;;4983665;28;20038;-83